sensor_id;sensor_type;location;lat;lon;timestamp;P1;durP1;ratioP1;P2;durP2;ratioP2
80961;SDS011;70424;55.154;14.722;2023-08-06T00:00:01;8.43;;;3.78;;
80961;SDS011;70424;55.154;14.722;2023-08-06T00:02:28;6.32;;;3.60;;
80961;SDS011;70424;55.154;14.722;2023-08-06T00:04:53;6.22;;;3.92;;
80961;SDS011;70424;55.154;14.722;2023-08-06T00:07:18;6.72;;;3.75;;
80961;SDS011;70424;55.154;14.722;2023-08-06T00:09:45;7.55;;;3.90;;
80961;SDS011;70424;55.154;14.722;2023-08-06T00:12:10;8.45;;;4.10;;
80961;SDS011;70424;55.154;14.722;2023-08-06T00:14:35;6.53;;;3.35;;
80961;SDS011;70424;55.154;14.722;2023-08-06T00:17:00;5.53;;;3.72;;
80961;SDS011;70424;55.154;14.722;2023-08-06T00:19:26;8.63;;;3.63;;
80961;SDS011;70424;55.154;14.722;2023-08-06T00:21:51;9.75;;;3.60;;
80961;SDS011;70424;55.154;14.722;2023-08-06T00:24:16;6.97;;;3.50;;
80961;SDS011;70424;55.154;14.722;2023-08-06T00:26:42;5.70;;;3.58;;
80961;SDS011;70424;55.154;14.722;2023-08-06T00:29:07;6.95;;;3.58;;
80961;SDS011;70424;55.154;14.722;2023-08-06T00:31:32;5.80;;;3.70;;
80961;SDS011;70424;55.154;14.722;2023-08-06T00:33:58;7.07;;;3.42;;
80961;SDS011;70424;55.154;14.722;2023-08-06T00:36:23;10.13;;;3.72;;
80961;SDS011;70424;55.154;14.722;2023-08-06T00:38:48;4.78;;;3.58;;
80961;SDS011;70424;55.154;14.722;2023-08-06T00:41:14;5.80;;;3.50;;
80961;SDS011;70424;55.154;14.722;2023-08-06T00:43:39;6.07;;;3.30;;
80961;SDS011;70424;55.154;14.722;2023-08-06T00:46:05;6.55;;;3.78;;
80961;SDS011;70424;55.154;14.722;2023-08-06T00:48:31;6.22;;;3.40;;
80961;SDS011;70424;55.154;14.722;2023-08-06T00:50:56;7.35;;;3.53;;
80961;SDS011;70424;55.154;14.722;2023-08-06T00:53:21;6.40;;;3.30;;
80961;SDS011;70424;55.154;14.722;2023-08-06T00:55:47;7.60;;;3.70;;
80961;SDS011;70424;55.154;14.722;2023-08-06T00:58:12;5.60;;;3.38;;
80961;SDS011;70424;55.154;14.722;2023-08-06T01:03:06;6.30;;;3.28;;
80961;SDS011;70424;55.154;14.722;2023-08-06T01:05:31;5.22;;;2.92;;
80961;SDS011;70424;55.154;14.722;2023-08-06T01:08:10;6.65;;;3.35;;
80961;SDS011;70424;55.154;14.722;2023-08-06T01:11:00;5.07;;;3.35;;
80961;SDS011;70424;55.154;14.722;2023-08-06T01:16:05;5.05;;;3.25;;
80961;SDS011;70424;55.154;14.722;2023-08-06T01:18:31;4.70;;;3.30;;
80961;SDS011;70424;55.154;14.722;2023-08-06T01:20:57;5.05;;;3.50;;
80961;SDS011;70424;55.154;14.722;2023-08-06T01:23:22;4.75;;;3.30;;
80961;SDS011;70424;55.154;14.722;2023-08-06T01:31:41;5.05;;;3.40;;
80961;SDS011;70424;55.154;14.722;2023-08-06T01:36:36;5.15;;;3.30;;
80961;SDS011;70424;55.154;14.722;2023-08-06T01:39:01;5.15;;;3.10;;
80961;SDS011;70424;55.154;14.722;2023-08-06T01:41:27;6.18;;;3.67;;
80961;SDS011;70424;55.154;14.722;2023-08-06T01:43:52;5.70;;;3.50;;
80961;SDS011;70424;55.154;14.722;2023-08-06T01:46:17;6.85;;;3.47;;
80961;SDS011;70424;55.154;14.722;2023-08-06T01:48:43;6.55;;;3.58;;
80961;SDS011;70424;55.154;14.722;2023-08-06T01:51:08;6.32;;;3.25;;
80961;SDS011;70424;55.154;14.722;2023-08-06T01:53:34;6.65;;;3.45;;
80961;SDS011;70424;55.154;14.722;2023-08-06T01:55:59;5.88;;;3.40;;
80961;SDS011;70424;55.154;14.722;2023-08-06T01:58:24;5.00;;;3.40;;
80961;SDS011;70424;55.154;14.722;2023-08-06T02:00:50;7.18;;;3.17;;
80961;SDS011;70424;55.154;14.722;2023-08-06T02:03:15;4.95;;;3.10;;
80961;SDS011;70424;55.154;14.722;2023-08-06T02:05:41;6.28;;;3.20;;
80961;SDS011;70424;55.154;14.722;2023-08-06T02:08:06;5.45;;;3.20;;
80961;SDS011;70424;55.154;14.722;2023-08-06T02:10:32;5.65;;;3.40;;
80961;SDS011;70424;55.154;14.722;2023-08-06T02:12:57;6.85;;;3.58;;
80961;SDS011;70424;55.154;14.722;2023-08-06T02:15:22;7.88;;;2.90;;
80961;SDS011;70424;55.154;14.722;2023-08-06T02:17:48;6.70;;;3.13;;
80961;SDS011;70424;55.154;14.722;2023-08-06T02:20:13;4.57;;;3.28;;
80961;SDS011;70424;55.154;14.722;2023-08-06T02:22:38;4.65;;;2.83;;
80961;SDS011;70424;55.154;14.722;2023-08-06T02:25:04;7.40;;;3.20;;
80961;SDS011;70424;55.154;14.722;2023-08-06T02:27:30;4.65;;;3.20;;
80961;SDS011;70424;55.154;14.722;2023-08-06T02:29:55;6.60;;;3.35;;
80961;SDS011;70424;55.154;14.722;2023-08-06T02:32:20;7.90;;;3.38;;
80961;SDS011;70424;55.154;14.722;2023-08-06T02:34:45;7.05;;;3.35;;
80961;SDS011;70424;55.154;14.722;2023-08-06T02:37:11;5.43;;;3.10;;
80961;SDS011;70424;55.154;14.722;2023-08-06T02:39:36;5.35;;;3.00;;
80961;SDS011;70424;55.154;14.722;2023-08-06T02:42:04;5.85;;;3.30;;
80961;SDS011;70424;55.154;14.722;2023-08-06T02:44:33;5.82;;;3.58;;
80961;SDS011;70424;55.154;14.722;2023-08-06T02:46:59;5.35;;;3.15;;
80961;SDS011;70424;55.154;14.722;2023-08-06T02:49:25;6.28;;;3.17;;
80961;SDS011;70424;55.154;14.722;2023-08-06T02:51:50;7.35;;;3.58;;
80961;SDS011;70424;55.154;14.722;2023-08-06T02:54:15;5.15;;;3.22;;
80961;SDS011;70424;55.154;14.722;2023-08-06T02:56:44;5.47;;;3.10;;
80961;SDS011;70424;55.154;14.722;2023-08-06T02:59:10;4.97;;;3.63;;
80961;SDS011;70424;55.154;14.722;2023-08-06T03:01:36;6.00;;;3.30;;
80961;SDS011;70424;55.154;14.722;2023-08-06T03:04:01;5.65;;;3.42;;
80961;SDS011;70424;55.154;14.722;2023-08-06T03:06:27;6.38;;;3.28;;
80961;SDS011;70424;55.154;14.722;2023-08-06T03:08:52;6.60;;;3.47;;
80961;SDS011;70424;55.154;14.722;2023-08-06T03:11:18;5.10;;;3.20;;
80961;SDS011;70424;55.154;14.722;2023-08-06T03:13:43;5.45;;;3.10;;
80961;SDS011;70424;55.154;14.722;2023-08-06T03:16:08;6.80;;;3.50;;
80961;SDS011;70424;55.154;14.722;2023-08-06T03:18:33;7.18;;;3.42;;
80961;SDS011;70424;55.154;14.722;2023-08-06T03:20:59;6.80;;;3.30;;
80961;SDS011;70424;55.154;14.722;2023-08-06T03:23:24;7.07;;;3.40;;
80961;SDS011;70424;55.154;14.722;2023-08-06T03:25:49;6.65;;;3.30;;
80961;SDS011;70424;55.154;14.722;2023-08-06T03:28:15;6.50;;;3.10;;
80961;SDS011;70424;55.154;14.722;2023-08-06T03:30:40;11.50;;;3.90;;
80961;SDS011;70424;55.154;14.722;2023-08-06T03:33:06;6.45;;;3.63;;
80961;SDS011;70424;55.154;14.722;2023-08-06T03:35:31;7.47;;;3.58;;
80961;SDS011;70424;55.154;14.722;2023-08-06T03:37:56;7.82;;;3.58;;
80961;SDS011;70424;55.154;14.722;2023-08-06T03:40:22;6.53;;;3.08;;
80961;SDS011;70424;55.154;14.722;2023-08-06T03:42:47;6.40;;;3.40;;
80961;SDS011;70424;55.154;14.722;2023-08-06T03:45:12;6.07;;;3.60;;
80961;SDS011;70424;55.154;14.722;2023-08-06T03:47:38;6.10;;;3.38;;
80961;SDS011;70424;55.154;14.722;2023-08-06T03:50:03;7.95;;;3.00;;
80961;SDS011;70424;55.154;14.722;2023-08-06T03:52:29;8.57;;;3.30;;
80961;SDS011;70424;55.154;14.722;2023-08-06T03:54:54;6.60;;;3.33;;
80961;SDS011;70424;55.154;14.722;2023-08-06T03:57:20;6.07;;;3.40;;
80961;SDS011;70424;55.154;14.722;2023-08-06T03:59:45;6.88;;;3.08;;
80961;SDS011;70424;55.154;14.722;2023-08-06T04:02:10;6.20;;;3.40;;
80961;SDS011;70424;55.154;14.722;2023-08-06T04:04:35;5.65;;;3.28;;
80961;SDS011;70424;55.154;14.722;2023-08-06T04:07:01;7.38;;;3.60;;
80961;SDS011;70424;55.154;14.722;2023-08-06T04:09:28;5.90;;;3.00;;
80961;SDS011;70424;55.154;14.722;2023-08-06T04:11:53;6.10;;;3.05;;
80961;SDS011;70424;55.154;14.722;2023-08-06T04:14:19;9.25;;;3.25;;
80961;SDS011;70424;55.154;14.722;2023-08-06T04:16:44;6.28;;;2.97;;
80961;SDS011;70424;55.154;14.722;2023-08-06T04:19:10;7.95;;;3.20;;
80961;SDS011;70424;55.154;14.722;2023-08-06T04:21:35;6.35;;;3.03;;
80961;SDS011;70424;55.154;14.722;2023-08-06T04:24:00;5.65;;;3.05;;
80961;SDS011;70424;55.154;14.722;2023-08-06T04:26:26;6.30;;;3.15;;
80961;SDS011;70424;55.154;14.722;2023-08-06T04:28:51;8.50;;;3.10;;
80961;SDS011;70424;55.154;14.722;2023-08-06T04:31:17;7.78;;;2.83;;
80961;SDS011;70424;55.154;14.722;2023-08-06T04:33:42;8.60;;;3.30;;
80961;SDS011;70424;55.154;14.722;2023-08-06T04:36:08;4.38;;;2.70;;
80961;SDS011;70424;55.154;14.722;2023-08-06T04:38:33;5.68;;;3.10;;
80961;SDS011;70424;55.154;14.722;2023-08-06T04:40:58;8.98;;;3.13;;
80961;SDS011;70424;55.154;14.722;2023-08-06T04:43:23;6.18;;;3.00;;
80961;SDS011;70424;55.154;14.722;2023-08-06T04:45:50;6.38;;;2.85;;
80961;SDS011;70424;55.154;14.722;2023-08-06T04:48:16;5.68;;;2.83;;
80961;SDS011;70424;55.154;14.722;2023-08-06T04:50:49;5.97;;;3.20;;
80961;SDS011;70424;55.154;14.722;2023-08-06T04:53:15;6.25;;;3.03;;
80961;SDS011;70424;55.154;14.722;2023-08-06T04:55:40;5.97;;;3.10;;
80961;SDS011;70424;55.154;14.722;2023-08-06T04:58:06;7.32;;;3.22;;
80961;SDS011;70424;55.154;14.722;2023-08-06T05:00:33;5.07;;;3.10;;
80961;SDS011;70424;55.154;14.722;2023-08-06T05:02:59;6.97;;;3.38;;
80961;SDS011;70424;55.154;14.722;2023-08-06T05:05:25;6.03;;;3.17;;
80961;SDS011;70424;55.154;14.722;2023-08-06T05:07:50;6.30;;;3.00;;
80961;SDS011;70424;55.154;14.722;2023-08-06T05:10:16;6.00;;;3.00;;
80961;SDS011;70424;55.154;14.722;2023-08-06T05:12:41;6.45;;;3.40;;
80961;SDS011;70424;55.154;14.722;2023-08-06T05:15:07;5.65;;;3.03;;
80961;SDS011;70424;55.154;14.722;2023-08-06T05:17:33;5.75;;;3.45;;
80961;SDS011;70424;55.154;14.722;2023-08-06T05:19:58;7.38;;;3.30;;
80961;SDS011;70424;55.154;14.722;2023-08-06T05:22:24;7.63;;;3.20;;
80961;SDS011;70424;55.154;14.722;2023-08-06T05:24:49;6.65;;;3.10;;
80961;SDS011;70424;55.154;14.722;2023-08-06T05:27:15;6.30;;;3.22;;
80961;SDS011;70424;55.154;14.722;2023-08-06T05:29:40;6.20;;;3.10;;
80961;SDS011;70424;55.154;14.722;2023-08-06T05:32:06;5.93;;;3.35;;
80961;SDS011;70424;55.154;14.722;2023-08-06T05:34:31;6.75;;;2.88;;
80961;SDS011;70424;55.154;14.722;2023-08-06T05:36:57;6.53;;;3.10;;
80961;SDS011;70424;55.154;14.722;2023-08-06T05:39:22;6.35;;;3.10;;
80961;SDS011;70424;55.154;14.722;2023-08-06T05:41:47;5.97;;;3.40;;
80961;SDS011;70424;55.154;14.722;2023-08-06T05:44:13;5.45;;;3.53;;
80961;SDS011;70424;55.154;14.722;2023-08-06T05:46:38;7.53;;;3.15;;
80961;SDS011;70424;55.154;14.722;2023-08-06T05:49:03;7.53;;;3.40;;
80961;SDS011;70424;55.154;14.722;2023-08-06T05:51:30;5.22;;;3.35;;
80961;SDS011;70424;55.154;14.722;2023-08-06T05:53:55;8.27;;;3.78;;
80961;SDS011;70424;55.154;14.722;2023-08-06T05:56:20;6.47;;;3.42;;
80961;SDS011;70424;55.154;14.722;2023-08-06T05:58:46;7.22;;;3.00;;
80961;SDS011;70424;55.154;14.722;2023-08-06T06:01:12;5.32;;;3.20;;
80961;SDS011;70424;55.154;14.722;2023-08-06T06:03:38;7.10;;;3.30;;
80961;SDS011;70424;55.154;14.722;2023-08-06T06:06:03;8.65;;;3.67;;
80961;SDS011;70424;55.154;14.722;2023-08-06T06:08:28;6.55;;;3.35;;
80961;SDS011;70424;55.154;14.722;2023-08-06T06:10:54;7.13;;;3.30;;
80961;SDS011;70424;55.154;14.722;2023-08-06T06:13:19;4.82;;;3.08;;
80961;SDS011;70424;55.154;14.722;2023-08-06T06:15:46;5.93;;;3.22;;
80961;SDS011;70424;55.154;14.722;2023-08-06T06:18:12;6.15;;;3.25;;
80961;SDS011;70424;55.154;14.722;2023-08-06T06:20:37;5.75;;;2.75;;
80961;SDS011;70424;55.154;14.722;2023-08-06T06:23:02;5.95;;;3.03;;
80961;SDS011;70424;55.154;14.722;2023-08-06T06:25:28;5.72;;;3.22;;
80961;SDS011;70424;55.154;14.722;2023-08-06T06:27:53;6.13;;;3.13;;
80961;SDS011;70424;55.154;14.722;2023-08-06T06:30:18;6.93;;;3.20;;
80961;SDS011;70424;55.154;14.722;2023-08-06T06:32:43;7.20;;;3.20;;
80961;SDS011;70424;55.154;14.722;2023-08-06T06:35:09;5.43;;;3.10;;
80961;SDS011;70424;55.154;14.722;2023-08-06T06:37:35;5.43;;;2.63;;
80961;SDS011;70424;55.154;14.722;2023-08-06T06:40:00;5.15;;;3.13;;
80961;SDS011;70424;55.154;14.722;2023-08-06T06:42:25;6.43;;;3.03;;
80961;SDS011;70424;55.154;14.722;2023-08-06T06:44:51;6.53;;;3.40;;
80961;SDS011;70424;55.154;14.722;2023-08-06T06:47:16;6.55;;;3.17;;
80961;SDS011;70424;55.154;14.722;2023-08-06T06:49:42;7.57;;;3.13;;
80961;SDS011;70424;55.154;14.722;2023-08-06T06:52:07;6.95;;;3.25;;
80961;SDS011;70424;55.154;14.722;2023-08-06T06:54:32;6.88;;;3.28;;
80961;SDS011;70424;55.154;14.722;2023-08-06T06:56:58;5.45;;;3.67;;
80961;SDS011;70424;55.154;14.722;2023-08-06T06:59:23;7.38;;;3.28;;
80961;SDS011;70424;55.154;14.722;2023-08-06T07:01:48;5.38;;;3.20;;
80961;SDS011;70424;55.154;14.722;2023-08-06T07:04:14;6.75;;;3.45;;
80961;SDS011;70424;55.154;14.722;2023-08-06T07:06:39;6.65;;;3.15;;
80961;SDS011;70424;55.154;14.722;2023-08-06T07:09:04;7.68;;;3.40;;
80961;SDS011;70424;55.154;14.722;2023-08-06T07:11:30;9.88;;;3.83;;
80961;SDS011;70424;55.154;14.722;2023-08-06T07:13:56;10.85;;;4.03;;
80961;SDS011;70424;55.154;14.722;2023-08-06T07:16:25;6.65;;;3.53;;
80961;SDS011;70424;55.154;14.722;2023-08-06T07:18:51;8.25;;;3.47;;
80961;SDS011;70424;55.154;14.722;2023-08-06T07:21:18;7.80;;;3.70;;
80961;SDS011;70424;55.154;14.722;2023-08-06T07:23:43;8.15;;;3.40;;
80961;SDS011;70424;55.154;14.722;2023-08-06T07:26:09;6.25;;;3.55;;
80961;SDS011;70424;55.154;14.722;2023-08-06T07:28:34;6.63;;;3.50;;
80961;SDS011;70424;55.154;14.722;2023-08-06T07:31:00;5.70;;;3.60;;
80961;SDS011;70424;55.154;14.722;2023-08-06T07:33:27;8.48;;;3.60;;
80961;SDS011;70424;55.154;14.722;2023-08-06T07:35:52;7.75;;;3.80;;
80961;SDS011;70424;55.154;14.722;2023-08-06T07:38:18;7.25;;;3.90;;
80961;SDS011;70424;55.154;14.722;2023-08-06T07:40:43;8.27;;;4.18;;
80961;SDS011;70424;55.154;14.722;2023-08-06T07:43:09;6.30;;;3.80;;
80961;SDS011;70424;55.154;14.722;2023-08-06T07:45:35;8.80;;;4.43;;
80961;SDS011;70424;55.154;14.722;2023-08-06T07:48:00;8.13;;;4.70;;
80961;SDS011;70424;55.154;14.722;2023-08-06T07:50:26;8.68;;;4.30;;
80961;SDS011;70424;55.154;14.722;2023-08-06T07:52:51;6.93;;;4.70;;
80961;SDS011;70424;55.154;14.722;2023-08-06T07:55:17;9.50;;;4.70;;
80961;SDS011;70424;55.154;14.722;2023-08-06T07:57:42;8.32;;;4.63;;
80961;SDS011;70424;55.154;14.722;2023-08-06T08:00:07;8.75;;;4.82;;
80961;SDS011;70424;55.154;14.722;2023-08-06T08:02:34;8.10;;;4.55;;
80961;SDS011;70424;55.154;14.722;2023-08-06T08:04:59;7.57;;;4.85;;
80961;SDS011;70424;55.154;14.722;2023-08-06T08:07:25;6.88;;;4.50;;
80961;SDS011;70424;55.154;14.722;2023-08-06T08:09:52;8.05;;;5.05;;
80961;SDS011;70424;55.154;14.722;2023-08-06T08:12:17;8.02;;;4.47;;
80961;SDS011;70424;55.154;14.722;2023-08-06T08:14:43;6.65;;;4.35;;
80961;SDS011;70424;55.154;14.722;2023-08-06T08:17:10;9.57;;;4.57;;
80961;SDS011;70424;55.154;14.722;2023-08-06T08:19:36;7.50;;;4.78;;
80961;SDS011;70424;55.154;14.722;2023-08-06T08:22:01;8.60;;;4.57;;
80961;SDS011;70424;55.154;14.722;2023-08-06T08:24:26;8.63;;;4.32;;
80961;SDS011;70424;55.154;14.722;2023-08-06T08:26:52;8.63;;;4.50;;
80961;SDS011;70424;55.154;14.722;2023-08-06T08:29:21;8.38;;;4.38;;
80961;SDS011;70424;55.154;14.722;2023-08-06T08:31:47;7.90;;;4.43;;
80961;SDS011;70424;55.154;14.722;2023-08-06T08:34:15;7.53;;;4.32;;
80961;SDS011;70424;55.154;14.722;2023-08-06T08:36:41;8.27;;;4.97;;
80961;SDS011;70424;55.154;14.722;2023-08-06T08:39:07;7.93;;;4.45;;
80961;SDS011;70424;55.154;14.722;2023-08-06T08:41:33;8.07;;;4.95;;
80961;SDS011;70424;55.154;14.722;2023-08-06T08:43:59;9.75;;;4.78;;
80961;SDS011;70424;55.154;14.722;2023-08-06T08:46:28;8.82;;;4.90;;
80961;SDS011;70424;55.154;14.722;2023-08-06T08:48:55;9.38;;;5.10;;
80961;SDS011;70424;55.154;14.722;2023-08-06T08:51:22;8.10;;;5.13;;
80961;SDS011;70424;55.154;14.722;2023-08-06T08:53:48;8.82;;;4.95;;
80961;SDS011;70424;55.154;14.722;2023-08-06T08:56:15;9.98;;;5.00;;
80961;SDS011;70424;55.154;14.722;2023-08-06T08:58:41;7.70;;;4.18;;
80961;SDS011;70424;55.154;14.722;2023-08-06T09:01:07;8.73;;;4.25;;
80961;SDS011;70424;55.154;14.722;2023-08-06T09:03:33;8.98;;;4.43;;
80961;SDS011;70424;55.154;14.722;2023-08-06T09:06:00;7.00;;;4.30;;
80961;SDS011;70424;55.154;14.722;2023-08-06T09:10:56;8.98;;;4.07;;
80961;SDS011;70424;55.154;14.722;2023-08-06T09:13:22;7.50;;;3.85;;
80961;SDS011;70424;55.154;14.722;2023-08-06T09:15:48;7.00;;;3.97;;
80961;SDS011;70424;55.154;14.722;2023-08-06T09:18:15;5.88;;;3.88;;
80961;SDS011;70424;55.154;14.722;2023-08-06T09:20:50;6.25;;;4.10;;
80961;SDS011;70424;55.154;14.722;2023-08-06T09:23:15;8.65;;;4.00;;
80961;SDS011;70424;55.154;14.722;2023-08-06T09:25:40;6.93;;;3.63;;
80961;SDS011;70424;55.154;14.722;2023-08-06T09:28:06;8.10;;;3.75;;
80961;SDS011;70424;55.154;14.722;2023-08-06T09:30:32;8.68;;;3.78;;
80961;SDS011;70424;55.154;14.722;2023-08-06T09:32:59;5.97;;;3.65;;
80961;SDS011;70424;55.154;14.722;2023-08-06T09:35:24;7.55;;;3.90;;
80961;SDS011;70424;55.154;14.722;2023-08-06T09:37:50;6.82;;;3.80;;
80961;SDS011;70424;55.154;14.722;2023-08-06T09:40:25;6.47;;;3.90;;
80961;SDS011;70424;55.154;14.722;2023-08-06T09:42:52;6.80;;;4.38;;
80961;SDS011;70424;55.154;14.722;2023-08-06T09:45:17;7.10;;;4.07;;
80961;SDS011;70424;55.154;14.722;2023-08-06T09:47:42;7.50;;;4.15;;
80961;SDS011;70424;55.154;14.722;2023-08-06T09:50:41;6.47;;;4.30;;
80961;SDS011;70424;55.154;14.722;2023-08-06T09:53:07;5.90;;;3.40;;
80961;SDS011;70424;55.154;14.722;2023-08-06T09:55:35;6.03;;;3.50;;
80961;SDS011;70424;55.154;14.722;2023-08-06T09:58:01;8.52;;;3.83;;
80961;SDS011;70424;55.154;14.722;2023-08-06T10:00:27;5.32;;;3.20;;
80961;SDS011;70424;55.154;14.722;2023-08-06T10:02:54;8.48;;;3.35;;
80961;SDS011;70424;55.154;14.722;2023-08-06T10:05:24;5.57;;;3.70;;
80961;SDS011;70424;55.154;14.722;2023-08-06T10:07:50;6.35;;;3.40;;
80961;SDS011;70424;55.154;14.722;2023-08-06T10:10:16;6.80;;;3.78;;
80961;SDS011;70424;55.154;14.722;2023-08-06T10:12:48;8.65;;;3.88;;
80961;SDS011;70424;55.154;14.722;2023-08-06T10:15:16;5.13;;;3.22;;
80961;SDS011;70424;55.154;14.722;2023-08-06T10:17:52;6.38;;;3.25;;
80961;SDS011;70424;55.154;14.722;2023-08-06T10:20:21;6.47;;;3.28;;
80961;SDS011;70424;55.154;14.722;2023-08-06T10:22:59;7.50;;;3.35;;
80961;SDS011;70424;55.154;14.722;2023-08-06T10:25:25;7.28;;;4.22;;
80961;SDS011;70424;55.154;14.722;2023-08-06T10:30:32;8.38;;;4.43;;
80961;SDS011;70424;55.154;14.722;2023-08-06T10:33:01;9.07;;;4.32;;
80961;SDS011;70424;55.154;14.722;2023-08-06T10:35:43;6.85;;;3.67;;
80961;SDS011;70424;55.154;14.722;2023-08-06T10:38:11;8.40;;;4.35;;
80961;SDS011;70424;55.154;14.722;2023-08-06T10:43:28;8.45;;;4.05;;
80961;SDS011;70424;55.154;14.722;2023-08-06T10:45:58;7.22;;;4.05;;
80961;SDS011;70424;55.154;14.722;2023-08-06T10:51:09;7.53;;;4.35;;
80961;SDS011;70424;55.154;14.722;2023-08-06T10:53:36;7.45;;;3.60;;
80961;SDS011;70424;55.154;14.722;2023-08-06T10:56:02;5.97;;;3.80;;
80961;SDS011;70424;55.154;14.722;2023-08-06T10:58:36;7.65;;;3.38;;
80961;SDS011;70424;55.154;14.722;2023-08-06T11:01:02;6.00;;;3.25;;
80961;SDS011;70424;55.154;14.722;2023-08-06T11:03:27;6.63;;;3.85;;
80961;SDS011;70424;55.154;14.722;2023-08-06T11:05:53;7.68;;;3.85;;
80961;SDS011;70424;55.154;14.722;2023-08-06T11:08:25;6.40;;;3.47;;
80961;SDS011;70424;55.154;14.722;2023-08-06T11:10:51;7.55;;;3.63;;
80961;SDS011;70424;55.154;14.722;2023-08-06T11:13:17;7.63;;;4.05;;
80961;SDS011;70424;55.154;14.722;2023-08-06T11:15:43;7.95;;;3.35;;
80961;SDS011;70424;55.154;14.722;2023-08-06T11:18:09;5.88;;;3.53;;
80961;SDS011;70424;55.154;14.722;2023-08-06T11:20:35;8.63;;;3.58;;
80961;SDS011;70424;55.154;14.722;2023-08-06T11:23:01;7.05;;;4.03;;
80961;SDS011;70424;55.154;14.722;2023-08-06T11:25:26;7.22;;;3.70;;
80961;SDS011;70424;55.154;14.722;2023-08-06T11:27:51;7.75;;;3.97;;
80961;SDS011;70424;55.154;14.722;2023-08-06T11:30:17;8.57;;;3.70;;
80961;SDS011;70424;55.154;14.722;2023-08-06T11:32:46;5.55;;;3.40;;
80961;SDS011;70424;55.154;14.722;2023-08-06T11:35:12;8.88;;;3.55;;
80961;SDS011;70424;55.154;14.722;2023-08-06T11:37:38;5.57;;;3.40;;
80961;SDS011;70424;55.154;14.722;2023-08-06T11:40:08;7.97;;;3.42;;
80961;SDS011;70424;55.154;14.722;2023-08-06T11:42:36;6.40;;;3.45;;
80961;SDS011;70424;55.154;14.722;2023-08-06T11:45:02;7.93;;;3.58;;
80961;SDS011;70424;55.154;14.722;2023-08-06T11:47:28;8.55;;;3.65;;
80961;SDS011;70424;55.154;14.722;2023-08-06T11:49:53;7.93;;;3.80;;
80961;SDS011;70424;55.154;14.722;2023-08-06T11:52:23;6.38;;;3.20;;
80961;SDS011;70424;55.154;14.722;2023-08-06T11:55:03;9.52;;;3.67;;
80961;SDS011;70424;55.154;14.722;2023-08-06T11:57:36;9.18;;;3.67;;
80961;SDS011;70424;55.154;14.722;2023-08-06T12:00:06;9.18;;;4.03;;
80961;SDS011;70424;55.154;14.722;2023-08-06T12:02:33;5.82;;;3.67;;
80961;SDS011;70424;55.154;14.722;2023-08-06T12:05:01;6.45;;;3.30;;
80961;SDS011;70424;55.154;14.722;2023-08-06T12:07:29;5.68;;;3.20;;
80961;SDS011;70424;55.154;14.722;2023-08-06T12:09:56;6.22;;;3.08;;
80961;SDS011;70424;55.154;14.722;2023-08-06T12:12:22;7.45;;;3.40;;
80961;SDS011;70424;55.154;14.722;2023-08-06T12:14:48;6.82;;;3.45;;
80961;SDS011;70424;55.154;14.722;2023-08-06T12:17:14;9.45;;;3.65;;
80961;SDS011;70424;55.154;14.722;2023-08-06T12:19:39;6.85;;;3.53;;
80961;SDS011;70424;55.154;14.722;2023-08-06T12:22:04;6.93;;;3.00;;
80961;SDS011;70424;55.154;14.722;2023-08-06T12:24:29;8.23;;;3.42;;
80961;SDS011;70424;55.154;14.722;2023-08-06T12:26:57;9.77;;;3.45;;
80961;SDS011;70424;55.154;14.722;2023-08-06T12:29:22;7.10;;;2.85;;
80961;SDS011;70424;55.154;14.722;2023-08-06T12:31:48;6.82;;;2.83;;
80961;SDS011;70424;55.154;14.722;2023-08-06T12:34:13;7.50;;;3.50;;
80961;SDS011;70424;55.154;14.722;2023-08-06T12:36:39;6.43;;;3.45;;
80961;SDS011;70424;55.154;14.722;2023-08-06T12:39:04;5.72;;;3.22;;
80961;SDS011;70424;55.154;14.722;2023-08-06T12:41:30;8.73;;;3.40;;
80961;SDS011;70424;55.154;14.722;2023-08-06T12:43:55;7.18;;;3.72;;
80961;SDS011;70424;55.154;14.722;2023-08-06T12:46:20;9.30;;;3.63;;
80961;SDS011;70424;55.154;14.722;2023-08-06T12:48:46;7.75;;;2.90;;
80961;SDS011;70424;55.154;14.722;2023-08-06T12:51:13;8.32;;;3.17;;
80961;SDS011;70424;55.154;14.722;2023-08-06T12:53:38;7.22;;;2.80;;
80961;SDS011;70424;55.154;14.722;2023-08-06T12:56:03;11.60;;;3.13;;
80961;SDS011;70424;55.154;14.722;2023-08-06T12:58:29;7.53;;;2.70;;
80961;SDS011;70424;55.154;14.722;2023-08-06T13:00:54;5.57;;;2.83;;
80961;SDS011;70424;55.154;14.722;2023-08-06T13:03:20;10.05;;;3.03;;
80961;SDS011;70424;55.154;14.722;2023-08-06T13:05:45;8.88;;;3.08;;
80961;SDS011;70424;55.154;14.722;2023-08-06T13:08:10;5.22;;;3.00;;
80961;SDS011;70424;55.154;14.722;2023-08-06T13:10:36;8.07;;;3.60;;
80961;SDS011;70424;55.154;14.722;2023-08-06T13:13:01;9.43;;;2.90;;
80961;SDS011;70424;55.154;14.722;2023-08-06T13:15:26;5.63;;;2.78;;
80961;SDS011;70424;55.154;14.722;2023-08-06T13:17:52;7.35;;;2.75;;
80961;SDS011;70424;55.154;14.722;2023-08-06T13:20:17;7.18;;;2.83;;
80961;SDS011;70424;55.154;14.722;2023-08-06T13:22:44;3.80;;;2.25;;
80961;SDS011;70424;55.154;14.722;2023-08-06T13:25:11;5.28;;;2.35;;
80961;SDS011;70424;55.154;14.722;2023-08-06T13:27:39;4.55;;;2.40;;
80961;SDS011;70424;55.154;14.722;2023-08-06T13:30:05;6.28;;;2.30;;
80961;SDS011;70424;55.154;14.722;2023-08-06T13:32:30;4.43;;;2.15;;
80961;SDS011;70424;55.154;14.722;2023-08-06T13:34:57;7.18;;;2.25;;
80961;SDS011;70424;55.154;14.722;2023-08-06T13:37:23;5.22;;;2.33;;
80961;SDS011;70424;55.154;14.722;2023-08-06T13:39:48;5.40;;;2.60;;
80961;SDS011;70424;55.154;14.722;2023-08-06T13:42:13;6.13;;;2.90;;
80961;SDS011;70424;55.154;14.722;2023-08-06T13:44:39;7.22;;;3.25;;
80961;SDS011;70424;55.154;14.722;2023-08-06T13:47:04;7.20;;;2.95;;
80961;SDS011;70424;55.154;14.722;2023-08-06T13:49:29;9.77;;;3.38;;
80961;SDS011;70424;55.154;14.722;2023-08-06T13:51:54;10.27;;;3.13;;
80961;SDS011;70424;55.154;14.722;2023-08-06T13:54:20;8.23;;;3.03;;
80961;SDS011;70424;55.154;14.722;2023-08-06T13:56:46;7.93;;;3.08;;
80961;SDS011;70424;55.154;14.722;2023-08-06T13:59:11;10.93;;;3.30;;
80961;SDS011;70424;55.154;14.722;2023-08-06T14:01:38;6.00;;;3.00;;
80961;SDS011;70424;55.154;14.722;2023-08-06T14:04:03;9.20;;;3.10;;
80961;SDS011;70424;55.154;14.722;2023-08-06T14:06:29;9.90;;;3.70;;
80961;SDS011;70424;55.154;14.722;2023-08-06T14:08:55;5.85;;;2.50;;
80961;SDS011;70424;55.154;14.722;2023-08-06T14:11:20;4.55;;;2.70;;
80961;SDS011;70424;55.154;14.722;2023-08-06T14:13:46;8.93;;;3.03;;
80961;SDS011;70424;55.154;14.722;2023-08-06T14:16:11;5.88;;;2.70;;
80961;SDS011;70424;55.154;14.722;2023-08-06T14:18:37;9.00;;;3.00;;
80961;SDS011;70424;55.154;14.722;2023-08-06T14:21:03;8.32;;;3.30;;
80961;SDS011;70424;55.154;14.722;2023-08-06T14:23:29;8.70;;;2.80;;
80961;SDS011;70424;55.154;14.722;2023-08-06T14:25:54;8.02;;;3.47;;
80961;SDS011;70424;55.154;14.722;2023-08-06T14:28:19;7.65;;;3.35;;
80961;SDS011;70424;55.154;14.722;2023-08-06T14:30:45;12.07;;;3.22;;
80961;SDS011;70424;55.154;14.722;2023-08-06T14:33:10;9.70;;;2.97;;
80961;SDS011;70424;55.154;14.722;2023-08-06T14:35:35;8.93;;;3.55;;
80961;SDS011;70424;55.154;14.722;2023-08-06T14:38:01;7.93;;;2.90;;
80961;SDS011;70424;55.154;14.722;2023-08-06T14:40:26;9.18;;;3.05;;
80961;SDS011;70424;55.154;14.722;2023-08-06T14:42:53;12.32;;;4.35;;
80961;SDS011;70424;55.154;14.722;2023-08-06T14:45:19;11.30;;;3.53;;
80961;SDS011;70424;55.154;14.722;2023-08-06T14:47:44;12.70;;;3.92;;
80961;SDS011;70424;55.154;14.722;2023-08-06T14:50:10;15.00;;;5.40;;